Ida — C4CZ2 — position and weather

sailwx.info

Track history (hours):
 
Tides and Currents Weather Stations Pressure Air Temp Water Temp Dewpoint Dewpoint Depression Visibility Wind Speed Wind Dir Waves Ship Positions

Ida

Last reported at 2016-Jul-29 22:33 UTC. Time now 2016-Jul-29 23:35 UTC.
Position N 51°11' E 001°56'.

Length 82 m; draft 4 m.

Type: Cargo ship. MMSI: 210319000.

Date/timePositionNaut miles runAvg speedWind from/ knotsBaromVisibWave heightAir tempDewpointWater temp
2016-Jul-29 22:33N 51°11' E 001°56'1010.4
2016-Jul-29 21:33N 51°03' E 001°44'1211.5
2016-Jul-29 20:33N 50°55' E 001°31'339 8.7
2016-Jul-28 05:33N 48°09' W 006°04'  
2016-Jul-21 00:27N 38°50' W 009°50'8 9.3
2016-Jul-20 23:33N 38°42' W 009°50'9 9.0
2016-Jul-20 22:33N 38°33' W 009°47'9 8.6
2016-Jul-20 21:33N 38°25' W 009°45'9 8.5
2016-Jul-20 20:33N 38°16' W 009°42'9 8.6
2016-Jul-20 19:33N 38°08' W 009°40'8 8.4
2016-Jul-20 18:33N 37°60' W 009°37'8 8.2
2016-Jul-20 17:33N 37°52' W 009°35'8 8.3
2016-Jul-20 16:33N 37°44' W 009°33'9 8.6
2016-Jul-20 15:33N 37°35' W 009°30'9 8.7
2016-Jul-20 14:33N 37°27' W 009°28'12 8.8
2016-Jul-20 13:09N 37°15' W 009°24'5 9.0
2016-Jul-20 12:33N 37°10' W 009°23'33 8.0
2016-Jul-20 08:24N 36°43' W 008°59'  
Track history (hours):
 
Tides and Currents Weather Stations Pressure Air Temp Water Temp Dewpoint Dewpoint Depression Visibility Wind Speed Wind Dir Waves Ship Positions

Ida

Last reported at 2016-Jul-29 22:33 UTC. Time now 2016-Jul-29 23:35 UTC.
Position N 51°11' E 001°56'.

Length 82 m; draft 4 m.

Type: Cargo ship. MMSI: 210319000.

Date/timePositionNaut miles runAvg speedWind from/ knotsBaromVisibWave heightAir tempDewpointWater temp
2016-Jul-29 22:33N 51°11' E 001°56'1010.4
2016-Jul-29 21:33N 51°03' E 001°44'1211.5
2016-Jul-29 20:33N 50°55' E 001°31'339 8.7
2016-Jul-28 05:33N 48°09' W 006°04'  
2016-Jul-21 00:27N 38°50' W 009°50'8 9.3
2016-Jul-20 23:33N 38°42' W 009°50'9 9.0
2016-Jul-20 22:33N 38°33' W 009°47'9 8.6
2016-Jul-20 21:33N 38°25' W 009°45'9 8.5
2016-Jul-20 20:33N 38°16' W 009°42'9 8.6
2016-Jul-20 19:33N 38°08' W 009°40'8 8.4
2016-Jul-20 18:33N 37°60' W 009°37'8 8.2
2016-Jul-20 17:33N 37°52' W 009°35'8 8.3
2016-Jul-20 16:33N 37°44' W 009°33'9 8.6
2016-Jul-20 15:33N 37°35' W 009°30'9 8.7
2016-Jul-20 14:33N 37°27' W 009°28'12 8.8
2016-Jul-20 13:09N 37°15' W 009°24'5 9.0
2016-Jul-20 12:33N 37°10' W 009°23'33 8.0
2016-Jul-20 08:24N 36°43' W 008°59'  

Dump ship's entire track history